createdAt,value
2023-02-06T00:00:19.946Z,40.13
2023-02-06T00:01:19.945Z,38.65
2023-02-06T00:02:19.983Z,40.62
2023-02-06T00:03:19.939Z,41.21
2023-02-06T00:04:19.932Z,37.97
2023-02-06T00:05:20.002Z,39.08
2023-02-06T00:54:54.220Z,25.00
2023-02-06T00:55:55.154Z,25.00
2023-02-06T00:56:55.185Z,25.00
2023-02-06T00:57:55.077Z,25.00
2023-02-06T00:58:55.024Z,25.00
2023-02-06T00:59:54.983Z,25.00
2023-02-06T01:00:54.943Z,0.00
2023-02-06T01:01:54.914Z,0.00
2023-02-06T01:02:54.899Z,0.00
2023-02-06T01:03:54.821Z,0.00
2023-02-06T01:04:54.780Z,0.00
2023-02-06T01:05:54.755Z,0.00
2023-02-06T01:06:54.715Z,0.00
2023-02-06T01:07:54.671Z,0.00
2023-02-06T01:08:54.632Z,12.72
2023-02-06T01:09:54.590Z,23.88
2023-02-06T01:10:54.576Z,25.00
2023-02-06T01:11:54.526Z,25.00
2023-02-06T01:12:54.486Z,25.00
2023-02-06T01:13:54.445Z,25.95
2023-02-06T01:14:54.406Z,26.45
2023-02-06T01:15:54.398Z,25.05
2023-02-06T01:16:54.315Z,25.16
2023-02-06T01:17:54.293Z,25.00
2023-02-06T01:18:54.236Z,25.11
2023-02-06T01:19:54.208Z,25.00
2023-02-06T01:20:54.170Z,26.45
2023-02-06T01:21:54.129Z,25.05
2023-02-06T01:22:54.084Z,26.28
2023-02-06T01:23:54.055Z,25.00
2023-02-06T01:24:54.009Z,26.44
2023-02-06T01:25:53.984Z,27.02
2023-02-06T01:26:53.967Z,25.93
2023-02-06T01:27:53.921Z,27.70
2023-02-06T01:28:53.866Z,25.12
2023-02-06T01:29:53.827Z,25.00
2023-02-06T01:30:53.823Z,29.52
2023-02-06T01:31:53.757Z,27.40
2023-02-06T01:32:53.704Z,25.47
2023-02-06T01:33:53.666Z,28.02
2023-02-06T01:34:53.630Z,27.48
2023-02-06T01:35:53.587Z,27.01
2023-02-06T01:36:53.557Z,27.78
2023-02-06T01:37:53.519Z,26.30
2023-02-06T01:38:53.472Z,26.48
2023-02-06T01:39:53.439Z,26.70
2023-02-06T01:40:53.397Z,26.81
2023-02-06T01:41:53.375Z,26.18
2023-02-06T01:42:53.348Z,26.71
2023-02-06T01:43:53.278Z,26.44
2023-02-06T01:44:53.234Z,25.41
2023-02-06T01:45:53.198Z,26.20
2023-02-06T01:46:53.297Z,30.64
2023-02-06T01:47:53.132Z,28.58
2023-02-06T01:48:53.096Z,26.33
2023-02-06T01:49:53.055Z,26.55
2023-02-06T01:50:53.023Z,28.40
2023-02-06T01:51:52.975Z,28.11
2023-02-06T01:52:52.943Z,29.30
2023-02-06T01:53:52.901Z,26.45
2023-02-06T01:54:52.870Z,29.84
2023-02-06T01:55:52.830Z,29.12
2023-02-06T01:56:52.790Z,27.54
2023-02-06T01:57:52.760Z,27.52
2023-02-06T01:58:52.751Z,29.51
2023-02-06T01:59:52.676Z,29.01
2023-02-06T02:00:52.659Z,26.31
2023-02-06T02:01:52.628Z,26.95
2023-02-06T02:02:52.572Z,25.00
2023-02-06T02:03:52.518Z,25.81
2023-02-06T02:04:52.473Z,27.81
2023-02-06T02:05:52.438Z,26.95
2023-02-06T02:06:52.402Z,29.76
2023-02-06T02:07:52.352Z,28.42
2023-02-06T02:08:52.313Z,26.92
2023-02-06T02:09:52.276Z,28.84
2023-02-06T02:10:52.245Z,30.00
2023-02-06T02:11:52.199Z,28.58
2023-02-06T02:12:52.163Z,28.17
2023-02-06T02:13:52.140Z,29.79
2023-02-06T02:14:52.108Z,28.33
2023-02-06T02:15:52.037Z,27.72
2023-02-06T02:16:51.996Z,25.43
2023-02-06T02:17:51.961Z,27.00
2023-02-06T02:18:51.921Z,26.08
2023-02-06T02:19:51.883Z,27.76
2023-02-06T02:20:51.849Z,30.23
2023-02-06T02:21:51.804Z,30.91
2023-02-06T02:22:51.767Z,26.79
2023-02-06T02:23:51.742Z,28.99
2023-02-06T02:24:51.689Z,28.91
2023-02-06T02:25:51.647Z,25.00
2023-02-06T02:26:51.601Z,26.70
2023-02-06T02:27:51.605Z,28.89
2023-02-06T02:28:51.519Z,30.07
2023-02-06T02:29:51.474Z,27.64
2023-02-06T02:30:51.555Z,28.35
2023-02-06T02:31:51.446Z,26.70
2023-02-06T02:32:51.354Z,30.41
2023-02-06T02:33:51.311Z,28.08
2023-02-06T02:34:51.275Z,28.32
2023-02-06T02:35:51.229Z,27.66
2023-02-06T02:36:51.205Z,27.82
2023-02-06T02:37:51.136Z,25.83
2023-02-06T02:38:51.096Z,26.68
2023-02-06T02:39:51.051Z,30.35
2023-02-06T02:40:51.009Z,28.27
2023-02-06T02:41:50.967Z,28.39
2023-02-06T02:42:50.936Z,28.79
2023-02-06T02:43:50.885Z,28.87
2023-02-06T02:44:50.866Z,28.80
2023-02-06T02:45:50.845Z,27.89
2023-02-06T02:46:50.785Z,26.38
2023-02-06T02:47:50.747Z,26.40
2023-02-06T02:48:50.666Z,27.17
2023-02-06T02:49:50.622Z,28.65
2023-02-06T02:50:50.573Z,28.64
2023-02-06T02:51:50.522Z,28.16
2023-02-06T02:52:50.478Z,28.81
2023-02-06T02:53:50.443Z,28.57
2023-02-06T02:54:50.389Z,28.50
2023-02-06T02:55:50.350Z,28.72
2023-02-06T02:56:50.293Z,29.19
2023-02-06T02:57:50.242Z,28.87
2023-02-06T02:58:50.203Z,25.73
2023-02-06T02:59:50.151Z,27.93
2023-02-06T03:00:50.154Z,29.71
2023-02-06T03:01:50.124Z,30.57
2023-02-06T03:02:50.055Z,27.28
2023-02-06T03:03:50.037Z,28.35
2023-02-06T03:04:49.946Z,28.21
2023-02-06T03:05:49.899Z,30.78
2023-02-06T03:06:49.869Z,29.12
2023-02-06T03:07:49.828Z,29.93
2023-02-06T03:08:49.851Z,29.01
2023-02-06T03:09:49.755Z,31.19
2023-02-06T03:10:49.706Z,30.03
2023-02-06T03:11:49.676Z,28.66
2023-02-06T03:12:49.638Z,31.06
2023-02-06T03:13:49.611Z,30.12
2023-02-06T03:14:49.563Z,31.39
2023-02-06T03:15:49.534Z,27.83
2023-02-06T03:16:49.568Z,31.01
2023-02-06T03:17:49.452Z,29.16
2023-02-06T03:18:49.437Z,28.80
2023-02-06T03:19:49.373Z,30.91
2023-02-06T03:20:49.334Z,28.87
2023-02-06T03:21:49.297Z,30.79
2023-02-06T03:22:49.270Z,29.37
2023-02-06T03:23:49.211Z,30.24
2023-02-06T03:24:49.170Z,30.29
2023-02-06T03:25:49.126Z,32.26
2023-02-06T03:26:49.085Z,27.84
2023-02-06T03:27:49.048Z,29.10
2023-02-06T03:28:49.001Z,32.26
2023-02-06T03:29:48.953Z,32.70
2023-02-06T03:30:48.961Z,32.54
2023-02-06T03:31:48.958Z,25.77
2023-02-06T03:32:48.819Z,30.81
2023-02-06T03:33:48.801Z,29.95
2023-02-06T03:34:48.759Z,29.59
2023-02-06T03:35:48.686Z,32.86
2023-02-06T03:36:48.657Z,32.15
2023-02-06T03:37:48.600Z,30.83
2023-02-06T03:38:48.554Z,30.14
2023-02-06T03:39:48.536Z,30.36
2023-02-06T03:40:48.474Z,29.43
2023-02-06T03:41:48.436Z,31.22
2023-02-06T03:42:48.398Z,30.74
2023-02-06T03:43:48.367Z,29.26
2023-02-06T03:44:48.314Z,31.32
2023-02-06T03:45:48.293Z,30.03
2023-02-06T03:46:48.228Z,30.94
2023-02-06T03:47:48.189Z,30.99
2023-02-06T03:48:48.153Z,32.78
2023-02-06T03:49:48.140Z,30.27
2023-02-06T03:50:48.197Z,28.88
2023-02-06T03:51:48.022Z,27.80
2023-02-06T03:52:47.983Z,29.57
2023-02-06T03:53:47.938Z,29.13
2023-02-06T03:54:47.894Z,30.58
2023-02-06T03:55:47.857Z,29.02
2023-02-06T03:56:47.810Z,28.24
2023-02-06T03:57:47.784Z,30.53
2023-02-06T03:58:47.730Z,30.23
2023-02-06T03:59:47.702Z,27.63
2023-02-06T04:00:47.657Z,31.80
2023-02-06T04:01:47.614Z,30.73
2023-02-06T04:02:47.577Z,30.38
2023-02-06T04:03:47.528Z,31.78
2023-02-06T04:04:47.493Z,29.13
2023-02-06T04:05:47.440Z,28.46
2023-02-06T04:06:47.431Z,31.66
2023-02-06T04:07:47.367Z,29.65
2023-02-06T04:08:48.031Z,31.66
2023-02-06T04:09:47.274Z,31.21
2023-02-06T04:10:47.232Z,29.52
2023-02-06T04:11:47.190Z,30.23
2023-02-06T04:12:47.140Z,30.25
2023-02-06T04:13:47.089Z,30.70
2023-02-06T04:14:47.051Z,28.53
2023-02-06T04:15:47.004Z,31.12
2023-02-06T04:16:46.983Z,31.03
2023-02-06T04:17:59.602Z,28.60
2023-02-06T04:18:46.876Z,28.89
2023-02-06T04:19:46.848Z,30.22
2023-02-06T04:20:46.795Z,30.28
2023-02-06T04:21:46.788Z,30.86
2023-02-06T04:22:46.746Z,32.27
2023-02-06T04:23:46.678Z,28.20
2023-02-06T04:24:46.636Z,31.25
2023-02-06T04:25:46.606Z,31.90
2023-02-06T04:26:46.572Z,32.27
2023-02-06T04:27:46.548Z,32.37
2023-02-06T04:28:46.496Z,31.18
2023-02-06T04:29:46.462Z,29.01
2023-02-06T04:30:46.556Z,29.56
2023-02-06T04:31:46.389Z,30.10
2023-02-06T04:32:46.372Z,29.47
2023-02-06T04:33:46.318Z,30.79
2023-02-06T04:34:46.381Z,29.20
2023-02-06T04:35:46.244Z,30.05
2023-02-06T04:36:46.210Z,28.10
2023-02-06T04:37:46.173Z,28.83
2023-02-06T04:38:46.152Z,28.56
2023-02-06T04:39:46.088Z,28.98
2023-02-06T04:40:46.055Z,30.15
2023-02-06T04:41:46.006Z,27.69
2023-02-06T04:42:45.971Z,30.26
2023-02-06T04:43:45.940Z,28.99
2023-02-06T04:44:45.901Z,28.08
2023-02-06T04:45:45.863Z,29.09
2023-02-06T04:46:45.821Z,33.23
2023-02-06T04:47:45.788Z,29.80
2023-02-06T04:48:45.748Z,30.33
2023-02-06T04:49:45.708Z,30.84
2023-02-06T04:50:45.677Z,28.14
2023-02-06T04:51:45.640Z,28.37
2023-02-06T04:52:45.598Z,31.88
2023-02-06T04:53:45.559Z,27.60
2023-02-06T04:54:45.646Z,29.54
2023-02-06T04:55:45.475Z,28.93
2023-02-06T04:56:45.435Z,27.87
2023-02-06T04:57:45.389Z,31.53
2023-02-06T04:58:45.344Z,28.15
2023-02-06T04:59:45.309Z,28.50
2023-02-06T05:00:45.298Z,28.72
2023-02-06T05:01:45.291Z,30.02
2023-02-06T05:02:45.204Z,28.12
2023-02-06T05:03:45.139Z,26.57
2023-02-06T05:04:45.102Z,26.78
2023-02-06T05:05:45.066Z,29.44
2023-02-06T05:06:45.027Z,30.09
2023-02-06T05:07:44.988Z,30.21
2023-02-06T05:08:44.941Z,28.97
2023-02-06T05:09:44.901Z,28.20
2023-02-06T05:10:44.889Z,29.48
2023-02-06T05:11:44.821Z,26.82
2023-02-06T05:12:44.773Z,28.95
2023-02-06T05:13:44.734Z,29.68
2023-02-06T05:14:44.693Z,29.04
2023-02-06T05:15:44.704Z,27.79
2023-02-06T05:16:44.599Z,27.86
2023-02-06T05:17:44.551Z,29.62
2023-02-06T05:18:44.507Z,28.24
2023-02-06T05:19:44.519Z,29.90
2023-02-06T05:20:44.430Z,30.82
2023-02-06T05:21:44.389Z,28.38
2023-02-06T05:22:44.346Z,29.55
2023-02-06T05:23:44.294Z,29.21
2023-02-06T05:24:44.249Z,29.54
2023-02-06T05:25:44.209Z,29.36
2023-02-06T05:26:44.196Z,29.93
2023-02-06T05:27:44.165Z,27.68
2023-02-06T05:28:44.087Z,30.27
2023-02-06T05:29:44.049Z,30.52
2023-02-06T05:30:44.056Z,27.96
2023-02-06T05:31:44.064Z,27.71
2023-02-06T05:32:43.918Z,30.74
2023-02-06T05:33:43.873Z,29.71
2023-02-06T05:34:43.837Z,28.27
2023-02-06T05:35:43.818Z,28.38
2023-02-06T05:36:43.759Z,29.62
2023-02-06T05:37:43.714Z,28.18
2023-02-06T05:38:43.680Z,30.93
2023-02-06T05:39:43.630Z,31.82
2023-02-06T05:40:43.593Z,27.20
2023-02-06T05:41:43.557Z,31.98
2023-02-06T05:42:43.694Z,28.64
2023-02-06T05:43:43.481Z,30.58
2023-02-06T05:44:43.435Z,31.48
2023-02-06T05:45:43.393Z,30.46
2023-02-06T05:46:43.360Z,30.51
2023-02-06T05:47:43.320Z,28.10
2023-02-06T05:48:43.292Z,31.03
2023-02-06T05:49:43.241Z,31.52
2023-02-06T05:50:43.377Z,31.44
2023-02-06T05:51:43.157Z,28.11
2023-02-06T05:52:43.117Z,28.79
2023-02-06T05:53:43.090Z,29.46
2023-02-06T05:54:43.043Z,29.01
2023-02-06T05:55:43.010Z,29.38
2023-02-06T05:56:42.972Z,31.77
2023-02-06T05:57:42.936Z,27.83
2023-02-06T05:58:42.920Z,32.02
2023-02-06T05:59:42.867Z,30.44
2023-02-06T06:00:42.826Z,30.06
2023-02-06T06:01:42.796Z,29.59
2023-02-06T06:02:42.759Z,30.86
2023-02-06T06:03:42.730Z,28.57
2023-02-06T06:04:42.749Z,30.43
2023-02-06T06:05:42.660Z,30.64
2023-02-06T06:06:42.670Z,28.60
2023-02-06T06:07:42.588Z,29.80
2023-02-06T06:08:42.538Z,31.20
2023-02-06T06:09:42.504Z,31.06
2023-02-06T06:10:42.478Z,29.40
2023-02-06T06:11:42.444Z,29.54
2023-02-06T06:12:42.405Z,30.66
2023-02-06T06:13:42.402Z,29.48
2023-02-06T06:14:42.365Z,29.26
2023-02-06T06:15:42.417Z,32.13
2023-02-06T06:16:42.277Z,29.39
2023-02-06T06:17:42.215Z,30.41
2023-02-06T06:18:42.178Z,29.63
2023-02-06T06:19:42.141Z,29.65
2023-02-06T06:20:42.576Z,29.58
2023-02-06T06:21:42.074Z,31.59
2023-02-06T06:22:42.018Z,31.02
2023-02-06T06:23:41.983Z,32.67
2023-02-06T06:24:41.941Z,34.39
2023-02-06T06:25:41.903Z,37.83
2023-02-06T06:26:50.596Z,36.51
2023-02-06T06:27:41.838Z,37.27
2023-02-06T06:28:41.839Z,38.39
2023-02-06T06:29:41.752Z,38.55
2023-02-06T06:30:41.791Z,39.08
2023-02-06T06:31:41.739Z,41.33
2023-02-06T06:32:41.645Z,39.36
2023-02-06T06:33:41.605Z,41.25
2023-02-06T06:34:41.568Z,39.59
2023-02-06T06:35:41.550Z,38.80
2023-02-06T06:36:41.479Z,41.14
2023-02-06T06:37:41.456Z,38.39
2023-02-06T06:38:41.414Z,41.72
2023-02-06T06:39:41.372Z,39.46
2023-02-06T06:40:41.337Z,37.23
2023-02-06T06:41:41.606Z,41.52
2023-02-06T06:42:41.265Z,44.44
2023-02-06T06:43:41.595Z,47.93
2023-02-06T06:44:41.184Z,47.68
2023-02-06T06:45:41.526Z,63.37
2023-02-06T06:46:41.741Z,68.66
2023-02-06T06:47:41.111Z,50.57
2023-02-06T06:48:41.026Z,36.72
2023-02-06T06:49:41.001Z,27.70
2023-02-06T06:50:40.959Z,35.21
2023-02-06T06:51:40.954Z,40.33
2023-02-06T06:52:41.136Z,29.68
2023-02-06T06:53:40.896Z,28.52
2023-02-06T06:54:40.881Z,32.01
2023-02-06T06:55:40.860Z,25.47
2023-02-06T06:56:41.101Z,26.28
2023-02-06T06:57:40.843Z,24.68
2023-02-06T06:58:40.816Z,25.00
2023-02-06T06:59:40.792Z,25.13
2023-02-06T07:00:40.831Z,25.43
2023-02-06T07:01:41.108Z,25.00
2023-02-06T07:02:40.871Z,25.00
2023-02-06T07:03:40.773Z,27.39
2023-02-06T07:04:40.786Z,27.84
2023-02-06T07:05:40.757Z,28.31
2023-02-06T07:06:41.107Z,28.45
2023-02-06T07:07:40.740Z,26.46
2023-02-06T07:08:40.737Z,25.00
2023-02-06T07:09:41.114Z,27.53
2023-02-06T07:10:40.719Z,25.13
2023-02-06T07:11:40.913Z,28.07
2023-02-06T07:12:40.678Z,27.46
2023-02-06T07:13:40.651Z,27.56
2023-02-06T07:14:41.149Z,25.69
2023-02-06T07:15:40.603Z,30.32
2023-02-06T07:16:40.685Z,29.28
2023-02-06T07:17:40.849Z,27.30
2023-02-06T07:18:40.627Z,29.30
2023-02-06T07:19:40.503Z,27.73
2023-02-06T07:20:40.461Z,29.94
2023-02-06T07:21:40.446Z,26.87
2023-02-06T07:22:40.435Z,30.38
2023-02-06T07:23:40.608Z,29.20
2023-02-06T07:24:40.344Z,31.19
2023-02-06T07:25:40.500Z,31.11
2023-02-06T07:26:40.295Z,32.19
2023-02-06T07:27:40.277Z,34.15
2023-02-06T07:28:40.329Z,36.10
2023-02-06T07:29:40.214Z,38.78
2023-02-06T07:30:40.259Z,37.46
2023-02-06T07:31:40.247Z,38.17
2023-02-06T07:32:40.632Z,40.36
2023-02-06T07:33:40.123Z,41.08
2023-02-06T07:34:40.240Z,39.80
2023-02-06T07:35:40.464Z,41.65
2023-02-06T07:36:40.057Z,45.38
2023-02-06T07:37:40.117Z,46.61
2023-02-06T07:38:40.000Z,43.47
2023-02-06T07:39:39.967Z,45.51
2023-02-06T07:40:44.971Z,46.30
2023-02-06T07:41:39.917Z,46.73
2023-02-06T07:42:40.233Z,47.88
2023-02-06T07:43:39.874Z,49.03
2023-02-06T07:44:40.076Z,48.71
2023-02-06T07:45:40.038Z,54.37
2023-02-06T07:46:39.810Z,53.46
2023-02-06T07:47:39.737Z,51.34
2023-02-06T07:48:40.148Z,55.35
2023-02-06T07:49:39.710Z,52.49
2023-02-06T07:50:39.718Z,56.18
2023-02-06T07:51:39.627Z,53.80
2023-02-06T07:52:39.625Z,53.76
2023-02-06T07:53:39.674Z,53.82
2023-02-06T07:54:39.640Z,55.90
2023-02-06T07:55:39.655Z,51.10
2023-02-06T07:56:39.571Z,56.07
2023-02-06T07:57:39.560Z,54.81
2023-02-06T07:58:40.147Z,55.80
2023-02-06T07:59:39.593Z,57.36
2023-02-06T08:00:39.772Z,57.15
2023-02-06T08:01:39.354Z,57.30
2023-02-06T08:02:40.624Z,56.80
2023-02-06T08:03:40.292Z,58.27
2023-02-06T08:04:39.274Z,56.75
2023-02-06T08:05:39.472Z,56.46
2023-02-06T08:06:39.382Z,57.43
2023-02-06T08:07:39.846Z,58.72
2023-02-06T08:08:39.226Z,56.54
2023-02-06T08:09:39.216Z,58.74
2023-02-06T08:10:39.182Z,59.47
2023-02-06T08:11:38.989Z,57.61
2023-02-06T08:12:39.166Z,60.16
2023-02-06T08:13:39.255Z,59.78
2023-02-06T08:14:39.183Z,58.06
2023-02-06T08:15:39.039Z,58.77
2023-02-06T08:16:38.920Z,61.41
2023-02-06T08:17:39.352Z,60.12
2023-02-06T08:18:39.125Z,60.09
2023-02-06T08:19:39.219Z,60.45
2023-02-06T08:20:39.312Z,61.71
2023-02-06T08:21:39.354Z,60.06
2023-02-06T08:22:38.630Z,60.93
2023-02-06T08:23:38.844Z,61.75
2023-02-06T08:24:38.750Z,63.48
2023-02-06T08:25:38.986Z,62.52
2023-02-06T08:26:40.192Z,61.77
2023-02-06T08:27:39.850Z,66.00
2023-02-06T08:28:40.684Z,66.50
2023-02-06T08:29:38.776Z,66.57
2023-02-06T08:30:38.943Z,63.08
2023-02-06T08:31:38.753Z,65.92
2023-02-06T08:32:38.722Z,67.10
2023-02-06T08:33:38.706Z,65.73
2023-02-06T08:34:38.984Z,66.76
2023-02-06T08:35:38.535Z,67.43
2023-02-06T08:36:38.622Z,66.16
2023-02-06T08:37:38.366Z,70.31
2023-02-06T08:38:38.698Z,72.42
2023-02-06T08:39:38.244Z,80.43
2023-02-06T08:40:38.980Z,86.95
2023-02-06T08:41:38.292Z,90.14
2023-02-06T08:42:38.131Z,94.27
2023-02-06T08:43:38.427Z,97.01
2023-02-06T08:44:38.447Z,105.44
2023-02-06T08:45:38.467Z,109.89
2023-02-06T08:46:38.319Z,115.28
2023-02-06T08:47:38.464Z,112.86
2023-02-06T08:48:38.301Z,119.25
2023-02-06T08:49:38.158Z,119.95
2023-02-06T08:50:38.074Z,120.84
2023-02-06T08:51:37.807Z,125.52
2023-02-06T08:52:37.773Z,125.48
2023-02-06T08:53:37.733Z,126.23
2023-02-06T08:54:39.004Z,140.06
2023-02-06T08:55:37.989Z,136.38
2023-02-06T08:56:37.649Z,136.76
2023-02-06T08:57:37.589Z,143.71
2023-02-06T08:58:37.644Z,143.02
2023-02-06T08:59:37.521Z,146.72
2023-02-06T09:00:37.492Z,151.70
2023-02-06T09:01:37.544Z,155.99
2023-02-06T09:02:37.434Z,158.81
2023-02-06T09:03:37.642Z,160.62
2023-02-06T09:04:37.346Z,162.84
2023-02-06T09:05:37.675Z,165.52
2023-02-06T09:06:37.646Z,166.90
2023-02-06T09:07:37.199Z,171.82
2023-02-06T09:08:37.163Z,172.37
2023-02-06T09:09:37.124Z,174.76
2023-02-06T09:10:37.096Z,180.99
2023-02-06T09:11:37.030Z,180.09
2023-02-06T09:12:36.987Z,182.17
2023-02-06T09:13:36.943Z,185.09
2023-02-06T09:14:36.902Z,183.14
2023-02-06T09:15:37.289Z,190.35
2023-02-06T09:16:37.148Z,190.50
2023-02-06T09:17:36.778Z,191.10
2023-02-06T09:18:37.189Z,193.64
2023-02-06T09:19:36.669Z,194.56
2023-02-06T09:20:36.673Z,197.99
2023-02-06T09:21:36.578Z,201.24
2023-02-06T09:22:36.532Z,203.74
2023-02-06T09:23:36.662Z,205.21
2023-02-06T09:24:36.439Z,207.85
2023-02-06T09:25:36.710Z,209.50
2023-02-06T09:26:38.946Z,216.66
2023-02-06T09:27:36.300Z,217.05
2023-02-06T09:28:36.309Z,217.38
2023-02-06T09:29:36.206Z,219.29
2023-02-06T09:30:36.187Z,220.81
2023-02-06T09:31:36.158Z,224.31
2023-02-06T09:32:36.175Z,226.74
2023-02-06T09:33:36.017Z,228.51
2023-02-06T09:34:35.972Z,231.38
2023-02-06T09:35:36.271Z,233.56
2023-02-06T09:36:35.885Z,233.89
2023-02-06T09:37:36.157Z,234.89
2023-02-06T09:38:35.800Z,236.16
2023-02-06T09:39:36.154Z,239.01
2023-02-06T09:40:35.832Z,244.18
2023-02-06T09:41:39.459Z,243.44
2023-02-06T09:42:35.603Z,243.71
2023-02-06T09:43:35.554Z,201.34
2023-02-06T09:44:35.654Z,160.35
2023-02-06T09:45:35.813Z,161.45
2023-02-06T09:46:35.522Z,152.37
2023-02-06T09:47:35.402Z,141.48
2023-02-06T09:48:36.642Z,135.56
2023-02-06T09:49:35.654Z,136.54
2023-02-06T09:50:35.312Z,133.48
2023-02-06T09:51:35.270Z,122.54
2023-02-06T09:52:35.234Z,114.12
2023-02-06T09:53:35.205Z,107.39
2023-02-06T09:54:35.657Z,124.57
2023-02-06T09:55:35.510Z,138.10
2023-02-06T09:56:35.125Z,139.73
2023-02-06T09:57:35.093Z,146.06
2023-02-06T09:58:35.038Z,139.99
2023-02-06T09:59:35.154Z,142.60
2023-02-06T10:00:34.977Z,148.51
2023-02-06T10:01:34.967Z,152.72
2023-02-06T10:02:34.897Z,158.03
2023-02-06T10:03:35.202Z,157.84
2023-02-06T10:04:34.816Z,161.69
2023-02-06T10:05:35.972Z,166.36
2023-02-06T10:06:34.743Z,168.32
2023-02-06T10:07:34.713Z,172.90
2023-02-06T10:08:34.674Z,173.65
2023-02-06T10:09:34.660Z,176.36
2023-02-06T10:10:34.573Z,180.61
2023-02-06T10:11:34.521Z,182.45
2023-02-06T10:12:34.469Z,183.45
2023-02-06T10:13:34.506Z,188.41
2023-02-06T10:14:35.163Z,191.49
2023-02-06T10:15:35.169Z,193.26
2023-02-06T10:16:34.346Z,192.61
2023-02-06T10:17:34.685Z,199.69
2023-02-06T10:18:34.205Z,201.26
2023-02-06T10:19:34.175Z,204.67
2023-02-06T10:20:34.113Z,205.89
2023-02-06T10:21:34.064Z,209.08
2023-02-06T10:22:34.029Z,209.59
2023-02-06T10:23:33.983Z,213.23
2023-02-06T10:24:34.545Z,215.07
2023-02-06T10:25:34.092Z,217.35
2023-02-06T10:26:33.915Z,217.88
2023-02-06T10:27:33.804Z,221.15
2023-02-06T10:28:33.758Z,225.68
2023-02-06T10:29:34.191Z,229.78
2023-02-06T10:30:33.725Z,230.51
2023-02-06T10:31:33.706Z,226.97
2023-02-06T10:32:33.621Z,230.58
2023-02-06T10:33:33.868Z,231.56
2023-02-06T10:34:34.278Z,233.22
2023-02-06T10:35:33.449Z,236.62
2023-02-06T10:36:33.441Z,242.02
2023-02-06T10:37:33.308Z,242.32
2023-02-06T10:38:34.234Z,242.50
2023-02-06T10:39:33.727Z,244.19
2023-02-06T10:40:33.160Z,245.76
2023-02-06T10:41:33.173Z,249.86
2023-02-06T10:42:33.075Z,251.30
2023-02-06T10:43:33.030Z,249.69
2023-02-06T10:44:32.954Z,239.23
2023-02-06T10:45:33.028Z,230.89
2023-02-06T10:46:33.260Z,229.51
2023-02-06T10:47:32.813Z,228.58
2023-02-06T10:48:33.192Z,232.25
2023-02-06T10:49:32.704Z,232.38
2023-02-06T10:50:32.669Z,232.53
2023-02-06T10:51:32.689Z,231.19
2023-02-06T10:52:32.557Z,232.27
2023-02-06T10:53:32.509Z,230.26
2023-02-06T10:54:32.465Z,232.17
2023-02-06T10:55:32.419Z,233.18
2023-02-06T10:56:32.686Z,231.67
2023-02-06T10:57:32.318Z,232.44
2023-02-06T10:58:32.684Z,233.03
2023-02-06T10:59:32.243Z,234.03
2023-02-06T11:00:32.265Z,233.06
2023-02-06T11:01:32.243Z,234.22
2023-02-06T11:02:32.264Z,233.77
2023-02-06T11:03:32.195Z,233.66
2023-02-06T11:04:31.992Z,235.68
2023-02-06T11:05:31.932Z,232.95
2023-02-06T11:06:31.912Z,235.29
2023-02-06T11:07:31.829Z,234.88
2023-02-06T11:08:32.327Z,234.96
2023-02-06T11:09:31.730Z,235.19
2023-02-06T11:10:31.690Z,233.90
2023-02-06T11:11:31.638Z,234.96
2023-02-06T11:12:31.593Z,235.24
2023-02-06T11:13:31.541Z,235.37
2023-02-06T11:14:31.717Z,237.02
2023-02-06T11:15:31.456Z,235.28
2023-02-06T11:16:31.417Z,235.50
2023-02-06T11:17:31.721Z,234.35
2023-02-06T11:18:31.307Z,235.93
2023-02-06T11:19:31.276Z,235.70
2023-02-06T11:20:31.215Z,237.65
2023-02-06T11:21:31.171Z,237.69
2023-02-06T11:22:33.303Z,238.59
2023-02-06T11:23:31.086Z,238.86
2023-02-06T11:24:31.034Z,239.53
2023-02-06T11:25:30.994Z,237.37
2023-02-06T11:26:30.956Z,236.54
2023-02-06T11:27:31.199Z,233.12
2023-02-06T11:28:30.851Z,232.35
2023-02-06T11:29:30.801Z,232.86
2023-02-06T11:30:30.849Z,199.70
2023-02-06T11:31:30.753Z,153.90
2023-02-06T11:32:30.693Z,175.81
2023-02-06T11:33:30.663Z,185.49
2023-02-06T11:34:30.604Z,186.34
2023-02-06T11:35:30.575Z,198.51
2023-02-06T11:36:30.694Z,205.30
2023-02-06T11:37:32.230Z,203.66
2023-02-06T11:38:30.441Z,203.66
2023-02-06T11:39:30.383Z,199.76
2023-02-06T11:40:30.351Z,196.54
2023-02-06T11:41:30.707Z,197.84
2023-02-06T11:42:30.698Z,190.72
2023-02-06T11:43:30.233Z,190.40
2023-02-06T11:44:30.202Z,165.95
2023-02-06T11:45:30.206Z,164.37
2023-02-06T11:46:30.141Z,138.86
2023-02-06T11:47:30.122Z,148.13
2023-02-06T11:48:30.077Z,122.88
2023-02-06T11:49:30.073Z,118.58
2023-02-06T11:50:29.998Z,122.31
2023-02-06T11:51:29.962Z,101.84
2023-02-06T11:52:30.208Z,91.74
2023-02-06T11:53:29.952Z,77.56
2023-02-06T11:54:29.855Z,32.46
2023-02-06T11:55:29.846Z,34.78
2023-02-06T11:56:29.806Z,33.12
2023-02-06T11:57:30.217Z,27.28
2023-02-06T11:58:29.754Z,34.14
2023-02-06T11:59:29.727Z,26.11
2023-02-06T12:00:29.692Z,30.68
2023-02-06T12:01:29.673Z,30.92
2023-02-06T12:02:29.757Z,29.99
2023-02-06T12:03:29.641Z,31.67
2023-02-06T12:04:29.610Z,28.74
2023-02-06T12:05:29.645Z,30.59
2023-02-06T12:06:29.554Z,26.51
2023-02-06T12:07:29.710Z,29.21
2023-02-06T12:08:29.979Z,25.00
2023-02-06T12:09:29.481Z,45.11
2023-02-06T12:10:29.460Z,29.74
2023-02-06T12:11:29.436Z,26.87
2023-02-06T12:12:29.420Z,27.18
2023-02-06T12:13:29.757Z,38.18
2023-02-06T12:14:29.366Z,27.24
2023-02-06T12:15:45.293Z,26.36
2023-02-06T12:16:29.343Z,26.49
2023-02-06T12:17:29.291Z,26.91
2023-02-06T12:18:29.718Z,23.71
2023-02-06T12:19:29.225Z,22.38
2023-02-06T12:20:29.199Z,22.15
2023-02-06T12:21:29.187Z,27.51
2023-02-06T12:22:29.143Z,16.42
2023-02-06T12:23:29.140Z,38.22
2023-02-06T12:24:29.083Z,60.15
2023-02-06T12:25:29.045Z,45.80
2023-02-06T12:26:29.252Z,33.03
2023-02-06T12:27:28.983Z,31.42
2023-02-06T12:28:29.264Z,26.02
2023-02-06T12:29:28.922Z,25.22
2023-02-06T12:30:28.890Z,25.14
2023-02-06T12:31:28.940Z,25.43
2023-02-06T12:32:29.016Z,26.24
2023-02-06T12:33:29.624Z,26.09
2023-02-06T12:34:29.039Z,27.85
2023-02-06T12:35:29.466Z,27.93
2023-02-06T12:36:29.027Z,40.34
2023-02-06T12:37:28.754Z,59.06
2023-02-06T12:38:28.879Z,74.06
2023-02-06T12:39:29.052Z,83.20
2023-02-06T12:40:28.943Z,96.40
2023-02-06T12:41:28.992Z,103.62
2023-02-06T12:42:28.652Z,85.58
2023-02-06T12:43:29.085Z,97.17
2023-02-06T12:44:28.650Z,103.80
2023-02-06T12:45:28.509Z,106.90
2023-02-06T12:46:29.071Z,106.53
2023-02-06T12:47:28.916Z,111.98
2023-02-06T12:48:29.028Z,118.80
2023-02-06T12:49:28.646Z,119.69
2023-02-06T12:50:28.873Z,121.63
2023-02-06T12:51:28.669Z,127.48
2023-02-06T12:52:28.403Z,133.54
2023-02-06T12:53:28.756Z,136.35
2023-02-06T12:54:28.321Z,136.20
2023-02-06T12:55:28.681Z,131.59
2023-02-06T12:56:28.272Z,133.77
2023-02-06T12:57:28.107Z,132.30
2023-02-06T12:58:28.116Z,134.73
2023-02-06T12:59:28.219Z,127.91
2023-02-06T13:00:28.006Z,131.30
2023-02-06T13:01:33.068Z,129.53
2023-02-06T13:02:28.129Z,130.00
2023-02-06T13:03:28.254Z,130.47
2023-02-06T13:04:27.873Z,130.00
2023-02-06T13:05:27.846Z,124.76
2023-02-06T13:06:27.802Z,132.87
2023-02-06T13:07:27.776Z,136.25
2023-02-06T13:08:28.251Z,142.38
2023-02-06T13:09:27.741Z,133.85
2023-02-06T13:10:27.687Z,140.70
2023-02-06T13:11:27.660Z,144.19
2023-02-06T13:12:27.626Z,145.86
2023-02-06T13:13:27.736Z,144.85
2023-02-06T13:14:27.565Z,151.97
2023-02-06T13:15:27.528Z,153.96
2023-02-06T13:16:27.482Z,157.11
2023-02-06T13:17:27.451Z,157.91
2023-02-06T13:18:27.413Z,160.18
2023-02-06T13:19:27.738Z,160.51
2023-02-06T13:20:27.343Z,161.73
2023-02-06T13:21:28.248Z,156.79
2023-02-06T13:22:27.283Z,258.32
2023-02-06T13:23:27.245Z,194.63
2023-02-06T13:24:27.210Z,168.73
2023-02-06T13:25:27.264Z,166.98
2023-02-06T13:26:27.153Z,168.78
2023-02-06T13:27:27.095Z,168.96
2023-02-06T13:28:27.058Z,172.17
2023-02-06T13:29:27.030Z,167.69
2023-02-06T13:30:27.006Z,166.64
2023-02-06T13:31:27.106Z,164.24
2023-02-06T13:32:26.918Z,166.77
2023-02-06T13:33:26.881Z,178.91